Time;durP1;ratioP1;P1;durP2;ratioP2;P2;SDS_P1;SDS_P2;PMS_P1;PMS_P2;Temp;Humidity;BMP_temperature;BMP_pressure;BME280_temperature;BME280_humidity;BME280_pressure;Samples;Min_cycle;Max_cycle;Signal;HPM_P1;HPM_P2
2022/01/29 00:01:02;;;;;;;;;;;7.90;99.90;;;;;;4968604;28;19949;-89
2022/01/29 00:03:30;;;;;;;;;;;7.80;99.90;;;;;;4968385;28;20295;-89
2022/01/29 00:05:57;;;;;;;;;;;7.80;99.90;;;;;;4953609;28;20546;-88
2022/01/29 00:08:23;;;;;;;;;;;7.80;99.90;;;;;;4953421;28;20498;-89
2022/01/29 00:10:54;;;;;;;;;;;7.70;99.90;;;;;;4968519;28;19906;-89
2022/01/29 00:13:19;;;;;;;;;;;7.70;99.90;;;;;;4953736;28;20362;-89
2022/01/29 00:15:45;;;;;;;;;;;7.80;99.90;;;;;;4953652;28;19913;-88
2022/01/29 00:18:10;;;;;;;;;;;7.80;99.90;;;;;;4953549;29;20386;-89
2022/01/29 00:20:36;;;;;;;;;;;7.80;99.90;;;;;;4968379;28;19948;-89
2022/01/29 00:23:01;;;;;;;;;;;7.80;99.90;;;;;;4968228;28;20035;-88
2022/01/29 00:25:27;;;;;;;;;;;7.80;99.90;;;;;;4953627;28;20001;-89
2022/01/29 00:27:54;;;;;;;;;;;7.80;99.90;;;;;;4954914;28;19937;-89
2022/01/29 00:30:24;;;;;;;;;;;7.80;99.90;;;;;;4953419;28;19907;-89
2022/01/29 00:32:50;;;;;;;;;;;7.80;99.90;;;;;;4968421;28;20439;-88
2022/01/29 00:35:15;;;;;;;;;;;7.80;99.90;;;;;;4953264;28;20006;-89
2022/01/29 00:37:41;;;;;;;;;;;7.80;99.90;;;;;;4953392;28;20296;-89
2022/01/29 00:40:07;;;;;;;;;;;7.90;99.90;;;;;;4953167;29;19907;-89
2022/01/29 00:42:32;;;;;;;;;;;7.90;99.90;;;;;;4952754;29;20318;-88
2022/01/29 00:44:58;;;;;;;;;;;7.90;99.90;;;;;;4967544;28;19906;-88
2022/01/29 00:47:23;;;;;;;;;;;7.90;99.90;;;;;;4953165;28;20320;-89
2022/01/29 00:49:49;;;;;;;;;;;7.90;99.90;;;;;;4953436;29;20276;-90
2022/01/29 00:52:15;;;;;;;;;;;7.80;99.90;;;;;;4968389;28;20008;-88
2022/01/29 00:54:40;;;;;;;;;;;7.80;99.90;;;;;;4953008;29;19917;-89
2022/01/29 00:57:06;;;;;;;;;;;7.80;99.90;;;;;;4969917;28;19974;-89
2022/01/29 00:59:33;;;;;;;;;;;7.80;99.90;;;;;;4953232;28;19913;-88
2022/01/29 01:01:59;;;;;;;;;;;7.80;99.90;;;;;;4967774;28;19928;-88
2022/01/29 01:04:25;;;;;;;;;;;7.80;99.90;;;;;;4967673;28;20375;-89
2022/01/29 01:06:50;;;;;;;;;;;7.80;99.90;;;;;;4952708;28;20394;-89
2022/01/29 01:09:16;;;;;;;;;;;7.70;99.90;;;;;;4953170;28;20347;-88
2022/01/29 01:11:42;;;;;;;;;;;7.70;99.90;;;;;;4967512;28;20433;-89
2022/01/29 01:14:07;;;;;;;;;;;7.70;99.90;;;;;;4953070;28;19913;-88
2022/01/29 01:16:34;;;;;;;;;;;7.70;99.90;;;;;;4952799;28;19913;-89
2022/01/29 01:19:00;;;;;;;;;;;7.70;99.90;;;;;;4952676;28;19907;-89
2022/01/29 01:21:26;;;;;;;;;;;7.70;99.90;;;;;;4967619;28;19910;-89
2022/01/29 01:23:51;;;;;;;;;;;7.70;99.90;;;;;;4968689;28;20249;-89
2022/01/29 01:26:18;;;;;;;;;;;7.70;99.90;;;;;;4971597;28;20311;-89
2022/01/29 01:28:43;;;;;;;;;;;7.80;99.90;;;;;;4956378;28;19910;-89
2022/01/29 01:31:09;;;;;;;;;;;7.80;99.90;;;;;;4971132;28;19954;-88
2022/01/29 01:33:34;;;;;;;;;;;7.80;99.90;;;;;;4956358;28;19906;-88
2022/01/29 01:36:03;;;;;;;;;;;7.70;99.90;;;;;;4956253;29;19945;-88
2022/01/29 01:41:02;;;;;;;;;;;7.70;99.90;;;;;;4956503;28;20547;-88
2022/01/29 01:43:28;;;;;;;;;;;7.70;99.90;;;;;;4955688;28;20379;-87
2022/01/29 01:45:54;;;;;;;;;;;7.80;99.90;;;;;;4955699;29;19934;-87
2022/01/29 01:48:19;;;;;;;;;;;7.80;99.90;;;;;;4955862;28;20319;-88
2022/01/29 01:50:45;;;;;;;;;;;7.70;99.90;;;;;;4970465;28;19946;-87
2022/01/29 01:53:11;;;;;;;;;;;7.80;99.90;;;;;;4956037;28;20254;-88
2022/01/29 01:55:37;;;;;;;;;;;7.80;99.90;;;;;;4956168;28;20371;-87
2022/01/29 01:58:03;;;;;;;;;;;7.80;99.90;;;;;;4970619;28;19932;-88
2022/01/29 02:00:28;;;;;;;;;;;7.80;99.90;;;;;;4956049;28;19913;-88
2022/01/29 02:02:54;;;;;;;;;;;7.70;99.90;;;;;;4970598;28;19910;-88
2022/01/29 02:05:20;;;;;;;;;;;7.70;99.90;;;;;;4970634;28;19911;-89
2022/01/29 02:07:46;;;;;;;;;;;7.80;99.90;;;;;;4955279;28;20398;-88
2022/01/29 02:10:12;;;;;;;;;;;7.70;99.90;;;;;;4955254;28;19953;-88
2022/01/29 02:12:49;;;;;;;;;;;7.80;99.90;;;;;;4970640;28;19950;-88
2022/01/29 02:15:15;;;;;;;;;;;7.80;99.90;;;;;;4970454;28;20431;-88
2022/01/29 02:17:41;;;;;;;;;;;7.70;99.90;;;;;;4970388;28;19914;-88
2022/01/29 02:20:07;;;;;;;;;;;7.70;99.90;;;;;;4955634;28;19906;-89
2022/01/29 02:22:32;;;;;;;;;;;7.70;99.90;;;;;;4955414;28;20360;-88
2022/01/29 02:24:58;;;;;;;;;;;7.70;99.90;;;;;;4955217;28;20430;-88
2022/01/29 02:27:24;;;;;;;;;;;7.70;99.90;;;;;;4955428;29;19971;-88
2022/01/29 02:29:50;;;;;;;;;;;7.70;99.90;;;;;;4970119;28;19907;-88
2022/01/29 02:32:15;;;;;;;;;;;7.70;99.90;;;;;;4955359;28;20398;-88
2022/01/29 02:34:43;;;;;;;;;;;7.80;99.90;;;;;;4955044;28;19908;-88
2022/01/29 02:37:09;;;;;;;;;;;7.70;99.90;;;;;;4955332;28;20406;-88
2022/01/29 02:39:35;;;;;;;;;;;7.80;99.90;;;;;;4956400;29;19902;-88
2022/01/29 02:42:01;;;;;;;;;;;7.80;99.90;;;;;;4971885;28;19965;-88
2022/01/29 02:44:27;;;;;;;;;;;7.80;99.90;;;;;;4955306;28;20359;-88
2022/01/29 02:46:54;;;;;;;;;;;7.70;99.90;;;;;;4955549;28;19958;-87
2022/01/29 02:49:26;;;;;;;;;;;7.70;99.90;;;;;;4955082;28;19907;-88
2022/01/29 02:51:53;;;;;;;;;;;7.70;99.90;;;;;;4955002;28;19989;-88
2022/01/29 02:54:19;;;;;;;;;;;7.70;99.90;;;;;;4954917;28;19907;-87
2022/01/29 02:56:45;;;;;;;;;;;7.70;99.90;;;;;;4969751;28;19945;-88
2022/01/29 02:59:10;;;;;;;;;;;7.70;99.90;;;;;;4954786;28;19945;-88
2022/01/29 03:01:36;;;;;;;;;;;7.80;99.90;;;;;;4956422;29;19974;-88
2022/01/29 03:04:02;;;;;;;;;;;7.70;99.90;;;;;;4954785;28;19970;-87
2022/01/29 03:06:28;;;;;;;;;;;7.70;99.90;;;;;;4969325;28;20299;-88
2022/01/29 03:08:54;;;;;;;;;;;7.70;99.90;;;;;;4969059;28;19910;-88
2022/01/29 03:11:20;;;;;;;;;;;7.70;99.90;;;;;;4954432;28;19913;-88
2022/01/29 03:13:46;;;;;;;;;;;7.70;99.90;;;;;;4954350;28;20716;-87
2022/01/29 03:16:12;;;;;;;;;;;7.70;99.90;;;;;;4969182;28;19913;-87
2022/01/29 03:18:37;;;;;;;;;;;7.60;99.90;;;;;;4969209;28;19907;-88
2022/01/29 03:21:03;;;;;;;;;;;7.60;99.90;;;;;;4954277;28;20057;-88
2022/01/29 03:23:28;;;;;;;;;;;7.70;99.90;;;;;;4954249;28;19942;-88
2022/01/29 03:25:54;;;;;;;;;;;7.70;99.90;;;;;;4954190;29;19913;-87
2022/01/29 03:28:19;;;;;;;;;;;7.70;99.90;;;;;;4953934;29;19914;-88
2022/01/29 03:30:45;;;;;;;;;;;7.70;99.90;;;;;;4953767;29;20386;-87
2022/01/29 03:33:11;;;;;;;;;;;7.70;99.90;;;;;;4953920;29;20248;-88
2022/01/29 03:35:36;;;;;;;;;;;7.70;99.90;;;;;;4954518;28;19941;-88
2022/01/29 03:38:02;;;;;;;;;;;7.70;99.90;;;;;;4968785;28;19906;-88
2022/01/29 03:40:29;;;;;;;;;;;7.70;99.90;;;;;;4954230;28;19907;-88
2022/01/29 03:43:02;;;;;;;;;;;7.60;99.90;;;;;;4953748;28;19919;-88
2022/01/29 03:45:28;;;;;;;;;;;7.60;99.90;;;;;;4953724;28;19907;-88
2022/01/29 03:47:53;;;;;;;;;;;7.50;99.90;;;;;;4953086;28;20383;-88
2022/01/29 03:50:19;;;;;;;;;;;7.50;99.90;;;;;;4953555;28;19913;-89
2022/01/29 03:52:45;;;;;;;;;;;7.40;99.90;;;;;;4953500;28;20421;-88
2022/01/29 03:55:10;;;;;;;;;;;7.40;99.90;;;;;;4968307;28;19961;-88
2022/01/29 03:57:36;;;;;;;;;;;7.40;99.90;;;;;;4954020;28;20001;-88
2022/01/29 04:00:02;;;;;;;;;;;7.40;99.90;;;;;;4953742;29;19913;-88
2022/01/29 04:02:28;;;;;;;;;;;7.40;99.90;;;;;;4953577;28;19913;-88
2022/01/29 04:04:53;;;;;;;;;;;7.30;99.90;;;;;;4953497;28;19966;-88
2022/01/29 04:07:19;;;;;;;;;;;7.40;99.90;;;;;;4953487;29;19914;-88
2022/01/29 04:09:50;;;;;;;;;;;7.40;99.90;;;;;;4953732;29;19953;-88
2022/01/29 04:12:16;;;;;;;;;;;7.50;99.90;;;;;;4953420;29;20004;-88
2022/01/29 04:14:42;;;;;;;;;;;7.50;99.90;;;;;;4953285;28;19973;-87
2022/01/29 04:17:07;;;;;;;;;;;7.50;99.90;;;;;;4953302;29;20354;-88
2022/01/29 04:19:34;;;;;;;;;;;7.50;99.90;;;;;;4953333;29;19906;-89
2022/01/29 04:22:00;;;;;;;;;;;7.60;99.90;;;;;;4953343;28;20001;-87
2022/01/29 04:24:26;;;;;;;;;;;7.60;99.90;;;;;;4967671;28;19918;-87
2022/01/29 04:26:52;;;;;;;;;;;7.60;99.90;;;;;;4952968;28;19914;-87
2022/01/29 04:29:18;;;;;;;;;;;7.60;99.90;;;;;;4953059;29;19950;-86
2022/01/29 04:31:57;;;;;;;;;;;7.60;99.90;;;;;;4952807;28;20291;-88
2022/01/29 04:34:23;;;;;;;;;;;7.70;99.90;;;;;;4953171;29;19906;-88
2022/01/29 04:36:48;;;;;;;;;;;7.60;99.90;;;;;;4952979;29;19989;-88
2022/01/29 04:39:14;;;;;;;;;;;7.60;99.90;;;;;;4953257;29;19934;-87
2022/01/29 04:41:39;;;;;;;;;;;7.60;99.90;;;;;;4967856;28;20306;-87
2022/01/29 04:44:05;;;;;;;;;;;7.70;99.90;;;;;;4952709;28;19954;-88
2022/01/29 04:46:31;;;;;;;;;;;7.60;99.90;;;;;;4952895;28;19907;-88
2022/01/29 04:48:57;;;;;;;;;;;7.60;99.90;;;;;;4967503;28;19960;-87
2022/01/29 04:51:22;;;;;;;;;;;7.60;99.90;;;;;;4952882;28;20426;-88
2022/01/29 04:53:48;;;;;;;;;;;7.60;99.90;;;;;;4954336;29;19934;-88
2022/01/29 04:56:14;;;;;;;;;;;7.60;99.90;;;;;;4952665;28;20008;-88
2022/01/29 04:58:40;;;;;;;;;;;7.60;99.90;;;;;;4953949;28;19945;-88
2022/01/29 05:01:06;;;;;;;;;;;7.60;99.90;;;;;;4956886;28;19949;-87
2022/01/29 05:03:32;;;;;;;;;;;7.60;99.90;;;;;;4971500;28;19927;-88
2022/01/29 05:05:58;;;;;;;;;;;7.60;99.90;;;;;;4958566;28;20450;-88
2022/01/29 05:08:24;;;;;;;;;;;7.60;99.90;;;;;;4956600;28;19914;-88
2022/01/29 05:10:49;;;;;;;;;;;7.60;99.90;;;;;;4960105;29;20021;-88
2022/01/29 05:13:20;;;;;;;;;;;7.60;99.90;;;;;;4956468;29;20360;-88
2022/01/29 05:16:03;;;;;;;;;;;7.60;99.90;;;;;;4956525;29;20097;-87
2022/01/29 05:26:55;;;;;;;;;;;7.70;99.90;;;;;;4956253;29;19921;-88
2022/01/29 05:29:21;;;;;;;;;;;7.70;99.90;;;;;;4970935;28;20415;-88
2022/01/29 05:31:51;;;;;;;;;;;7.70;99.90;;;;;;4956087;28;19906;-87
2022/01/29 05:34:17;;;;;;;;;;;7.70;99.90;;;;;;4955912;29;20005;-88
2022/01/29 05:36:43;;;;;;;;;;;7.70;99.90;;;;;;4955898;29;19960;-88
2022/01/29 05:39:09;;;;;;;;;;;7.70;99.90;;;;;;4956014;29;19914;-88
2022/01/29 05:41:34;;;;;;;;;;;7.70;99.90;;;;;;4970787;28;19965;-88
2022/01/29 05:44:00;;;;;;;;;;;7.70;99.90;;;;;;4955813;28;19922;-88
2022/01/29 05:46:25;;;;;;;;;;;7.70;99.90;;;;;;4955901;29;19907;-87
2022/01/29 05:48:51;;;;;;;;;;;7.70;99.90;;;;;;4970904;28;19911;-89
2022/01/29 05:51:16;;;;;;;;;;;7.70;99.90;;;;;;4955621;28;19910;-88
2022/01/29 05:53:42;;;;;;;;;;;7.70;99.90;;;;;;4970237;28;19928;-89
2022/01/29 05:56:08;;;;;;;;;;;7.70;99.90;;;;;;4955981;28;19913;-88
2022/01/29 05:58:33;;;;;;;;;;;7.60;99.90;;;;;;4970582;28;19907;-88
2022/01/29 06:00:59;;;;;;;;;;;7.60;99.90;;;;;;4956075;28;19937;-89
2022/01/29 06:03:25;;;;;;;;;;;7.60;99.90;;;;;;4955990;29;19926;-88
2022/01/29 06:05:50;;;;;;;;;;;7.70;99.90;;;;;;4971256;28;19938;-89
2022/01/29 06:08:16;;;;;;;;;;;7.70;99.90;;;;;;4955955;28;20346;-89
2022/01/29 06:10:41;;;;;;;;;;;7.80;99.90;;;;;;4955611;28;19910;-89
2022/01/29 06:13:08;;;;;;;;;;;7.70;99.90;;;;;;4956037;29;19907;-90
2022/01/29 06:15:37;;;;;;;;;;;7.70;99.90;;;;;;4970718;28;20035;-89
2022/01/29 06:18:03;;;;;;;;;;;7.70;99.90;;;;;;4955832;28;19907;-88
2022/01/29 06:20:29;;;;;;;;;;;7.70;99.90;;;;;;4955965;29;20256;-89
2022/01/29 06:22:55;;;;;;;;;;;7.80;99.90;;;;;;4955944;29;19969;-89
2022/01/29 06:25:20;;;;;;;;;;;7.70;99.90;;;;;;4970771;28;20363;-90
2022/01/29 06:27:46;;;;;;;;;;;7.70;99.90;;;;;;4970669;28;19973;-89
2022/01/29 06:30:12;;;;;;;;;;;7.70;99.90;;;;;;4970488;28;19965;-88
2022/01/29 06:32:37;;;;;;;;;;;7.70;99.90;;;;;;4956051;28;19913;-90
2022/01/29 06:35:03;;;;;;;;;;;7.70;99.90;;;;;;4971350;28;19907;-89
2022/01/29 06:37:29;;;;;;;;;;;7.70;99.90;;;;;;4955462;28;19906;-89
2022/01/29 06:39:54;;;;;;;;;;;7.60;99.90;;;;;;4970502;28;19917;-89
2022/01/29 06:42:20;;;;;;;;;;;7.60;99.90;;;;;;4955019;28;19962;-89
2022/01/29 06:44:45;;;;;;;;;;;7.70;99.90;;;;;;4970073;28;19914;-88
2022/01/29 06:47:11;;;;;;;;;;;7.50;99.90;;;;;;4955252;28;19980;-88
2022/01/29 06:49:36;;;;;;;;;;;7.50;99.90;;;;;;4955107;29;19906;-89
2022/01/29 06:52:02;;;;;;;;;;;7.50;99.90;;;;;;4971755;28;20344;-89
2022/01/29 06:54:28;;;;;;;;;;;7.50;99.90;;;;;;4957011;28;19907;-89
2022/01/29 06:56:53;;;;;;;;;;;7.50;99.90;;;;;;4954959;28;19953;-88
2022/01/29 06:59:19;;;;;;;;;;;7.30;99.90;;;;;;4969726;28;20000;-89
2022/01/29 07:01:44;;;;;;;;;;;7.40;99.90;;;;;;4954794;28;19907;-88
2022/01/29 07:04:10;;;;;;;;;;;7.40;99.90;;;;;;4969647;28;19907;-89
2022/01/29 07:06:36;;;;;;;;;;;7.50;99.90;;;;;;4954721;28;20119;-88
2022/01/29 07:09:02;;;;;;;;;;;7.40;99.90;;;;;;4969989;28;20364;-89
2022/01/29 07:11:28;;;;;;;;;;;7.40;99.90;;;;;;4969494;28;19907;-89
2022/01/29 07:14:02;;;;;;;;;;;7.50;99.90;;;;;;4954570;28;19906;-89
2022/01/29 07:16:31;;;;;;;;;;;7.50;99.90;;;;;;4954604;29;19914;-89
2022/01/29 07:18:57;;;;;;;;;;;7.50;99.90;;;;;;4954521;29;19917;-88
2022/01/29 07:21:23;;;;;;;;;;;7.50;99.90;;;;;;4968716;28;19907;-89
2022/01/29 07:23:48;;;;;;;;;;;7.50;99.90;;;;;;4969342;28;19992;-89
2022/01/29 07:26:14;;;;;;;;;;;7.60;99.90;;;;;;4954732;28;19961;-89
2022/01/29 07:28:39;;;;;;;;;;;7.60;99.90;;;;;;4969485;28;19957;-89
2022/01/29 07:31:05;;;;;;;;;;;7.60;99.90;;;;;;4954584;28;19907;-89
2022/01/29 07:33:31;;;;;;;;;;;7.60;99.90;;;;;;4969244;28;20035;-89
2022/01/29 07:35:57;;;;;;;;;;;7.50;99.90;;;;;;4954431;28;19965;-89
2022/01/29 07:38:22;;;;;;;;;;;7.40;99.90;;;;;;4968835;28;20422;-89
2022/01/29 07:40:48;;;;;;;;;;;7.40;99.90;;;;;;4954358;28;19907;-89
2022/01/29 07:43:13;;;;;;;;;;;7.40;99.90;;;;;;4954303;29;19988;-89
2022/01/29 07:45:39;;;;;;;;;;;7.40;99.90;;;;;;4954316;29;19954;-89
2022/01/29 07:48:05;;;;;;;;;;;7.40;99.90;;;;;;4968963;28;20398;-89
2022/01/29 07:50:31;;;;;;;;;;;7.40;99.90;;;;;;4954251;28;20394;-88
2022/01/29 07:52:57;;;;;;;;;;;7.40;99.90;;;;;;4954031;29;20141;-89
2022/01/29 07:55:23;;;;;;;;;;;7.40;99.90;;;;;;4953785;29;19993;-89
2022/01/29 07:57:49;;;;;;;;;;;7.40;99.90;;;;;;4953877;29;19907;-89
2022/01/29 08:00:15;;;;;;;;;;;7.40;99.90;;;;;;4969072;28;19949;-89
2022/01/29 08:02:40;;;;;;;;;;;7.40;99.90;;;;;;4953967;28;19913;-89
2022/01/29 08:05:06;;;;;;;;;;;7.40;99.90;;;;;;4954003;29;19910;-89
2022/01/29 08:07:32;;;;;;;;;;;7.30;99.90;;;;;;4954056;29;19920;-89
2022/01/29 08:09:57;;;;;;;;;;;7.40;99.90;;;;;;4956796;29;19910;-88
2022/01/29 08:12:23;;;;;;;;;;;7.30;99.90;;;;;;4970832;28;19910;-89
2022/01/29 08:14:49;;;;;;;;;;;7.30;99.90;;;;;;4972486;28;19936;-89
2022/01/29 08:17:14;;;;;;;;;;;7.40;99.90;;;;;;4970626;28;19953;-88
2022/01/29 08:19:40;;;;;;;;;;;7.40;99.90;;;;;;4956519;28;19906;-88
2022/01/29 08:22:05;;;;;;;;;;;7.50;99.90;;;;;;4953452;29;19953;-88
2022/01/29 08:24:31;;;;;;;;;;;7.40;99.90;;;;;;4969165;28;19907;-88
2022/01/29 08:26:57;;;;;;;;;;;7.50;99.90;;;;;;4953398;28;20331;-88
2022/01/29 08:29:22;;;;;;;;;;;7.40;99.90;;;;;;4954417;29;20394;-88
2022/01/29 08:31:48;;;;;;;;;;;7.40;99.90;;;;;;4954801;29;19907;-88
2022/01/29 08:34:13;;;;;;;;;;;7.40;99.90;;;;;;4968025;28;19946;-89
2022/01/29 08:36:39;;;;;;;;;;;7.40;99.90;;;;;;4954046;28;20490;-89
2022/01/29 08:39:05;;;;;;;;;;;7.30;99.90;;;;;;4953743;29;19914;-89
2022/01/29 08:41:48;;;;;;;;;;;7.40;99.90;;;;;;4970785;28;19906;-94
2022/01/29 08:44:14;;;;;;;;;;;7.40;99.90;;;;;;4957276;28;19918;-91
2022/01/29 08:46:39;;;;;;;;;;;7.40;99.90;;;;;;4972177;28;19910;-90
2022/01/29 08:49:05;;;;;;;;;;;7.40;99.90;;;;;;4976787;28;20121;-91
2022/01/29 08:51:31;;;;;;;;;;;7.40;99.90;;;;;;4964788;29;19910;-91
2022/01/29 08:53:56;;;;;;;;;;;7.50;99.90;;;;;;4979318;28;20099;-93
2022/01/29 08:56:25;;;;;;;;;;;7.40;99.90;;;;;;4963462;28;19977;-90
2022/01/29 08:58:50;;;;;;;;;;;7.40;99.90;;;;;;4964632;28;19903;-93
2022/01/29 09:01:17;;;;;;;;;;;7.40;99.90;;;;;;4956669;28;19921;-92
2022/01/29 09:03:43;;;;;;;;;;;7.50;99.90;;;;;;4976142;28;19910;-91
2022/01/29 09:06:08;;;;;;;;;;;7.50;99.90;;;;;;4962487;28;19942;-92
2022/01/29 09:08:34;;;;;;;;;;;7.60;99.90;;;;;;4963426;28;19910;-93
2022/01/29 09:11:00;;;;;;;;;;;7.60;99.90;;;;;;4963538;28;19990;-92
2022/01/29 09:13:26;;;;;;;;;;;7.70;99.90;;;;;;4979257;28;20199;-92
2022/01/29 09:15:52;;;;;;;;;;;7.70;99.90;;;;;;4964425;28;19902;-91
2022/01/29 09:18:17;;;;;;;;;;;7.60;99.90;;;;;;4978083;28;20134;-92
2022/01/29 09:20:43;;;;;;;;;;;7.60;99.90;;;;;;4963726;28;20283;-93
2022/01/29 09:23:08;;;;;;;;;;;7.60;99.90;;;;;;4963447;28;20072;-91
2022/01/29 09:25:38;;;;;;;;;;;7.70;99.90;;;;;;4961691;28;19907;-90
2022/01/29 09:28:06;;;;;;;;;;;7.80;99.90;;;;;;4963687;28;19910;-92
2022/01/29 09:30:32;;;;;;;;;;;7.70;99.90;;;;;;4961936;28;19910;-90
2022/01/29 09:32:58;;;;;;;;;;;7.70;99.90;;;;;;4962148;28;19910;-93
2022/01/29 09:35:25;;;;;;;;;;;7.80;99.90;;;;;;4962882;28;20206;-90
2022/01/29 09:37:51;;;;;;;;;;;7.70;99.90;;;;;;4962160;28;19909;-93
2022/01/29 09:40:16;;;;;;;;;;;7.80;99.90;;;;;;4957333;28;20001;-92
2022/01/29 09:42:47;;;;;;;;;;;7.80;99.90;;;;;;4963924;28;19914;-94
2022/01/29 09:45:14;;;;;;;;;;;7.80;99.90;;;;;;4965165;28;19909;-91
2022/01/29 09:47:41;;;;;;;;;;;7.70;99.90;;;;;;4963812;28;20329;-91
2022/01/29 09:50:06;;;;;;;;;;;7.60;99.90;;;;;;4962372;28;20091;-89
2022/01/29 09:52:32;;;;;;;;;;;7.70;99.90;;;;;;4958708;28;19914;-92
2022/01/29 09:54:59;;;;;;;;;;;7.80;99.90;;;;;;4956227;28;19906;-91
2022/01/29 09:57:25;;;;;;;;;;;7.80;99.90;;;;;;4956820;28;20005;-90
2022/01/29 09:59:50;;;;;;;;;;;7.90;99.90;;;;;;4958034;28;20379;-91
2022/01/29 10:02:17;;;;;;;;;;;7.90;99.90;;;;;;4956515;28;20386;-90
2022/01/29 10:04:50;;;;;;;;;;;7.90;99.90;;;;;;4956694;28;19970;-91
2022/01/29 10:07:17;;;;;;;;;;;7.90;99.90;;;;;;4956735;28;19969;-90
2022/01/29 10:09:43;;;;;;;;;;;7.80;99.90;;;;;;4956767;28;20158;-92
2022/01/29 10:12:16;;;;;;;;;;;7.80;99.90;;;;;;4957697;28;20150;-92
2022/01/29 10:15:07;;;;;;;;;;;7.70;99.90;;;;;;4956250;28;19921;-92
2022/01/29 10:17:59;;;;;;;;;;;7.70;99.90;;;;;;4957808;28;19910;-92
2022/01/29 10:20:26;;;;;;;;;;;7.70;99.90;;;;;;4958122;28;19910;-90
2022/01/29 10:22:52;;;;;;;;;;;7.70;99.90;;;;;;4960220;28;19910;-92
2022/01/29 10:25:21;;;;;;;;;;;7.70;99.90;;;;;;4961619;28;19915;-91
2022/01/29 10:28:05;;;;;;;;;;;7.90;99.90;;;;;;4962477;28;19918;-90
2022/01/29 10:30:31;;;;;;;;;;;7.90;99.90;;;;;;4963850;28;19906;-91
2022/01/29 10:33:15;;;;;;;;;;;8.00;99.90;;;;;;4963814;28;19918;-90
2022/01/29 10:35:44;;;;;;;;;;;8.00;99.90;;;;;;4964900;29;20326;-90
2022/01/29 10:38:10;;;;;;;;;;;8.00;99.90;;;;;;4973990;28;19938;-91
2022/01/29 10:40:35;;;;;;;;;;;7.90;99.90;;;;;;4978005;28;19911;-92
2022/01/29 10:43:04;;;;;;;;;;;7.90;99.90;;;;;;4978544;28;19923;-90
2022/01/29 10:45:34;;;;;;;;;;;8.00;99.90;;;;;;4979039;28;20908;-90
2022/01/29 10:48:01;;;;;;;;;;;8.10;99.90;;;;;;4979208;28;19917;-90
2022/01/29 10:50:27;;;;;;;;;;;8.20;99.90;;;;;;4979258;28;19909;-90
2022/01/29 10:52:53;;;;;;;;;;;8.30;99.90;;;;;;4979577;28;19922;-90
2022/01/29 10:55:18;;;;;;;;;;;8.30;99.90;;;;;;4976671;28;19925;-92
2022/01/29 10:57:45;;;;;;;;;;;8.40;99.90;;;;;;4978065;28;19906;-91
2022/01/29 11:00:21;;;;;;;;;;;8.20;99.90;;;;;;4978953;28;19961;-92
2022/01/29 11:02:48;;;;;;;;;;;8.30;99.90;;;;;;4977136;28;19911;-90
2022/01/29 11:05:14;;;;;;;;;;;8.20;99.90;;;;;;4976925;28;19910;-91
2022/01/29 11:07:42;;;;;;;;;;;8.20;99.90;;;;;;4974914;28;19926;-91
2022/01/29 11:10:08;;;;;;;;;;;8.20;99.90;;;;;;4977768;28;19911;-91
2022/01/29 11:12:36;;;;;;;;;;;8.20;99.90;;;;;;4969485;29;19942;-90
2022/01/29 11:15:02;;;;;;;;;;;8.20;99.90;;;;;;4990653;28;19956;-91
2022/01/29 11:17:29;;;;;;;;;;;8.20;99.90;;;;;;4997955;28;19907;-91
2022/01/29 11:19:55;;;;;;;;;;;8.10;99.90;;;;;;4958060;29;19903;-91
2022/01/29 11:22:26;;;;;;;;;;;8.10;99.90;;;;;;4953715;28;19903;-93
2022/01/29 11:25:08;;;;;;;;;;;8.10;99.90;;;;;;4945927;28;19910;-92
2022/01/29 11:27:35;;;;;;;;;;;8.20;99.90;;;;;;4944084;28;19922;-92
2022/01/29 11:30:00;;;;;;;;;;;8.20;99.90;;;;;;4940821;28;20136;-91
2022/01/29 11:32:27;;;;;;;;;;;8.20;99.90;;;;;;4947016;29;19907;-92
2022/01/29 11:35:05;;;;;;;;;;;8.20;99.90;;;;;;4977087;28;20378;-91
2022/01/29 11:37:45;;;;;;;;;;;8.30;99.90;;;;;;4983734;28;19961;-92
2022/01/29 11:40:13;;;;;;;;;;;8.40;99.90;;;;;;4994530;28;20405;-91
2022/01/29 11:42:51;;;;;;;;;;;8.50;99.90;;;;;;4983390;28;19910;-90
2022/01/29 11:45:29;;;;;;;;;;;8.50;99.90;;;;;;4996331;28;19910;-93
2022/01/29 11:47:54;;;;;;;;;;;8.50;99.90;;;;;;4995075;28;20012;-94
2022/01/29 11:50:23;;;;;;;;;;;8.50;99.90;;;;;;4979968;28;19909;-91
2022/01/29 11:52:54;;;;;;;;;;;8.50;99.90;;;;;;4978501;28;19973;-91
2022/01/29 11:55:40;;;;;;;;;;;8.50;99.90;;;;;;4977162;28;19906;-93
2022/01/29 11:58:18;;;;;;;;;;;8.50;99.90;;;;;;4963621;28;19902;-94
2022/01/29 12:00:48;;;;;;;;;;;8.50;99.90;;;;;;4979156;28;19902;-93
2022/01/29 12:03:32;;;;;;;;;;;8.40;99.90;;;;;;4979093;28;19902;-92
2022/01/29 12:06:11;;;;;;;;;;;8.50;99.90;;;;;;4961491;28;19910;-92
2022/01/29 12:08:55;;;;;;;;;;;8.60;99.90;;;;;;4979608;28;19921;-93
2022/01/29 12:11:23;;;;;;;;;;;8.60;99.90;;;;;;4976528;28;19906;-94
2022/01/29 12:14:11;;;;;;;;;;;8.60;99.90;;;;;;4962067;28;20184;-94
2022/01/29 12:16:49;;;;;;;;;;;8.70;99.90;;;;;;4977517;28;20155;-93
2022/01/29 12:19:32;;;;;;;;;;;8.80;99.90;;;;;;4960656;28;19906;-91
2022/01/29 12:21:59;;;;;;;;;;;8.70;99.90;;;;;;4965511;28;19902;-93
2022/01/29 12:24:24;;;;;;;;;;;8.60;99.90;;;;;;4980645;28;20214;-94
2022/01/29 12:26:56;;;;;;;;;;;8.50;99.90;;;;;;4973930;28;19913;-90
2022/01/29 12:29:22;;;;;;;;;;;8.40;99.90;;;;;;4974258;28;20199;-91
2022/01/29 12:31:52;;;;;;;;;;;8.40;99.90;;;;;;4962841;28;19910;-91
2022/01/29 12:34:21;;;;;;;;;;;8.50;99.90;;;;;;4963437;28;19929;-91
2022/01/29 12:36:47;;;;;;;;;;;8.40;99.90;;;;;;4961973;28;19970;-89
2022/01/29 12:39:21;;;;;;;;;;;8.50;99.90;;;;;;4962919;28;19909;-89
2022/01/29 12:44:37;;;;;;;;;;;8.60;99.90;;;;;;4955948;29;19918;-87
2022/01/29 12:47:03;;;;;;;;;;;8.70;99.90;;;;;;4954280;29;19906;-86
2022/01/29 12:49:37;;;;;;;;;;;8.70;99.90;;;;;;4969263;28;19909;-88
2022/01/29 12:52:03;;;;;;;;;;;8.70;99.90;;;;;;4952650;28;19906;-85
2022/01/29 12:54:30;;;;;;;;;;;8.70;99.90;;;;;;4954554;29;20410;-85
2022/01/29 12:56:56;;;;;;;;;;;8.80;99.90;;;;;;4953054;29;19906;-86
2022/01/29 12:59:21;;;;;;;;;;;8.90;99.90;;;;;;4957991;29;20398;-88
2022/01/29 13:01:47;;;;;;;;;;;9.10;99.90;;;;;;4952870;29;19910;-89
2022/01/29 13:04:18;;;;;;;;;;;9.00;99.90;;;;;;4954794;28;19914;-88
2022/01/29 13:06:45;;;;;;;;;;;9.10;99.90;;;;;;4952793;29;20010;-87
2022/01/29 13:09:28;;;;;;;;;;;9.10;99.90;;;;;;4954079;29;20207;-88
2022/01/29 13:12:03;;;;;;;;;;;9.20;99.90;;;;;;4953018;29;20115;-90
2022/01/29 13:14:29;;;;;;;;;;;9.20;99.90;;;;;;4953720;28;20375;-89
2022/01/29 13:17:03;;;;;;;;;;;9.30;99.90;;;;;;4967586;28;19910;-85
2022/01/29 13:19:29;;;;;;;;;;;9.50;99.90;;;;;;4953081;28;20524;-83
2022/01/29 13:21:58;;;;;;;;;;;9.40;99.90;;;;;;4956904;28;19906;-84
2022/01/29 13:24:24;;;;;;;;;;;9.50;99.90;;;;;;4956165;29;19907;-84
2022/01/29 13:27:02;;;;;;;;;;;9.60;99.90;;;;;;4956464;29;19941;-84
2022/01/29 13:29:33;;;;;;;;;;;9.50;99.90;;;;;;4956268;28;19910;-83
2022/01/29 13:31:59;;;;;;;;;;;9.50;99.90;;;;;;4956056;29;19907;-83
2022/01/29 13:34:27;;;;;;;;;;;9.50;99.90;;;;;;4956109;28;19917;-95
2022/01/29 13:36:53;;;;;;;;;;;9.50;99.90;;;;;;4955748;29;19965;-83
2022/01/29 13:39:19;;;;;;;;;;;9.30;99.90;;;;;;4955719;28;19934;-84
2022/01/29 13:41:45;;;;;;;;;;;9.30;99.90;;;;;;4970355;28;19913;-85
2022/01/29 13:44:11;;;;;;;;;;;9.20;99.90;;;;;;4970254;28;19918;-85
2022/01/29 13:46:37;;;;;;;;;;;9.10;99.90;;;;;;4955771;28;20283;-85
2022/01/29 13:49:04;;;;;;;;;;;9.10;99.90;;;;;;4955686;28;19915;-84
2022/01/29 13:51:34;;;;;;;;;;;9.00;99.90;;;;;;4955680;28;19956;-90
2022/01/29 13:54:00;;;;;;;;;;;9.00;99.90;;;;;;4971155;28;19913;-85
2022/01/29 13:56:28;;;;;;;;;;;9.00;99.90;;;;;;4955578;28;19906;-83
2022/01/29 13:58:58;;;;;;;;;;;8.90;99.90;;;;;;4958702;28;19922;-84
2022/01/29 14:01:33;;;;;;;;;;;8.80;99.90;;;;;;4955387;29;19906;-83
2022/01/29 14:03:58;;;;;;;;;;;8.80;99.90;;;;;;4959225;29;20135;-84
2022/01/29 14:06:30;;;;;;;;;;;8.80;99.90;;;;;;4960462;29;19929;-83
2022/01/29 14:09:08;;;;;;;;;;;8.70;99.90;;;;;;4960399;29;19921;-83
2022/01/29 14:11:52;;;;;;;;;;;8.60;99.90;;;;;;4962387;28;19922;-82
2022/01/29 14:14:17;;;;;;;;;;;8.60;99.90;;;;;;4959714;28;20360;-82
2022/01/29 14:16:43;;;;;;;;;;;8.60;99.90;;;;;;4961404;29;19949;-86
2022/01/29 14:19:19;;;;;;;;;;;8.50;99.90;;;;;;4960010;28;19922;-83
2022/01/29 14:21:45;;;;;;;;;;;8.50;99.90;;;;;;4958333;29;19993;-83
2022/01/29 14:24:10;;;;;;;;;;;8.60;99.90;;;;;;4961284;28;19982;-84
2022/01/29 14:26:36;;;;;;;;;;;8.70;99.90;;;;;;4959386;29;19930;-84
2022/01/29 14:29:01;;;;;;;;;;;8.70;99.90;;;;;;4959713;28;19918;-82
2022/01/29 14:31:27;;;;;;;;;;;8.70;99.90;;;;;;4961290;28;19903;-83
2022/01/29 14:33:52;;;;;;;;;;;8.60;99.90;;;;;;4957386;29;19911;-87
2022/01/29 14:36:18;;;;;;;;;;;8.60;99.90;;;;;;4957714;28;19969;-82
2022/01/29 14:38:43;;;;;;;;;;;8.50;99.90;;;;;;4961425;29;19906;-83
2022/01/29 14:41:09;;;;;;;;;;;8.60;99.90;;;;;;4957766;28;19906;-83
2022/01/29 14:43:35;;;;;;;;;;;8.50;99.90;;;;;;4975032;28;19920;-82
2022/01/29 14:46:01;;;;;;;;;;;8.60;99.90;;;;;;4957533;28;20272;-81